sensor_id;sensor_type;location;lat;lon;timestamp;temperature;humidity
18141;DHT22;9196;49.194;12.526;2024-01-10T00:00:16;-5.00;94.40
18141;DHT22;9196;49.194;12.526;2024-01-10T00:02:42;-4.90;94.80
18141;DHT22;9196;49.194;12.526;2024-01-10T00:05:09;-4.80;94.70
18141;DHT22;9196;49.194;12.526;2024-01-10T00:07:36;-4.70;94.00
18141;DHT22;9196;49.194;12.526;2024-01-10T00:10:03;-4.70;93.90
18141;DHT22;9196;49.194;12.526;2024-01-10T00:12:30;-4.80;94.00
18141;DHT22;9196;49.194;12.526;2024-01-10T00:15:01;-4.80;94.40
18141;DHT22;9196;49.194;12.526;2024-01-10T00:17:30;-4.80;94.30
18141;DHT22;9196;49.194;12.526;2024-01-10T00:19:57;-4.80;94.00
18141;DHT22;9196;49.194;12.526;2024-01-10T00:22:23;-4.90;94.40
18141;DHT22;9196;49.194;12.526;2024-01-10T00:24:49;-4.80;94.70
18141;DHT22;9196;49.194;12.526;2024-01-10T00:27:16;-4.80;94.50
18141;DHT22;9196;49.194;12.526;2024-01-10T00:29:43;-4.90;94.00
18141;DHT22;9196;49.194;12.526;2024-01-10T00:32:10;-4.90;94.20
18141;DHT22;9196;49.194;12.526;2024-01-10T00:34:38;-4.90;94.50
18141;DHT22;9196;49.194;12.526;2024-01-10T00:37:04;-4.90;94.50
18141;DHT22;9196;49.194;12.526;2024-01-10T00:39:31;-4.90;94.40
18141;DHT22;9196;49.194;12.526;2024-01-10T00:41:58;-4.90;94.50
18141;DHT22;9196;49.194;12.526;2024-01-10T00:44:25;-4.80;95.00
18141;DHT22;9196;49.194;12.526;2024-01-10T00:46:52;-4.70;95.00
18141;DHT22;9196;49.194;12.526;2024-01-10T00:49:18;-4.70;94.40
18141;DHT22;9196;49.194;12.526;2024-01-10T00:51:47;-4.80;94.60
18141;DHT22;9196;49.194;12.526;2024-01-10T00:54:14;-4.80;94.70
18141;DHT22;9196;49.194;12.526;2024-01-10T00:56:41;-4.80;94.90
18141;DHT22;9196;49.194;12.526;2024-01-10T00:59:07;-4.80;94.80
18141;DHT22;9196;49.194;12.526;2024-01-10T01:01:34;-4.80;94.70
18141;DHT22;9196;49.194;12.526;2024-01-10T01:04:01;-4.80;94.40
18141;DHT22;9196;49.194;12.526;2024-01-10T01:06:28;-4.90;94.40
18141;DHT22;9196;49.194;12.526;2024-01-10T01:08:56;-4.90;94.60
18141;DHT22;9196;49.194;12.526;2024-01-10T01:11:24;-4.90;94.80
18141;DHT22;9196;49.194;12.526;2024-01-10T01:13:51;-5.00;94.90
18141;DHT22;9196;49.194;12.526;2024-01-10T01:16:17;-5.00;94.70
18141;DHT22;9196;49.194;12.526;2024-01-10T01:18:44;-5.00;94.50
18141;DHT22;9196;49.194;12.526;2024-01-10T01:21:11;-5.00;94.40
18141;DHT22;9196;49.194;12.526;2024-01-10T01:23:38;-5.10;94.60
18141;DHT22;9196;49.194;12.526;2024-01-10T01:26:06;-5.00;94.80
18141;DHT22;9196;49.194;12.526;2024-01-10T01:28:33;-5.00;94.60
18141;DHT22;9196;49.194;12.526;2024-01-10T01:31:00;-5.00;95.00
18141;DHT22;9196;49.194;12.526;2024-01-10T01:33:27;-4.80;94.60
18141;DHT22;9196;49.194;12.526;2024-01-10T01:35:53;-4.90;94.20
18141;DHT22;9196;49.194;12.526;2024-01-10T01:38:20;-4.90;94.20
18141;DHT22;9196;49.194;12.526;2024-01-10T01:40:47;-5.00;94.40
18141;DHT22;9196;49.194;12.526;2024-01-10T01:43:23;-5.10;94.60
18141;DHT22;9196;49.194;12.526;2024-01-10T01:45:51;-5.10;94.80
18141;DHT22;9196;49.194;12.526;2024-01-10T01:48:19;-5.10;94.70
18141;DHT22;9196;49.194;12.526;2024-01-10T01:50:48;-5.10;94.90
18141;DHT22;9196;49.194;12.526;2024-01-10T01:53:15;-5.20;95.20
18141;DHT22;9196;49.194;12.526;2024-01-10T01:55:44;-5.20;95.40
18141;DHT22;9196;49.194;12.526;2024-01-10T01:58:11;-5.10;95.80
18141;DHT22;9196;49.194;12.526;2024-01-10T02:00:40;-5.10;95.40
18141;DHT22;9196;49.194;12.526;2024-01-10T02:03:07;-5.10;95.60
18141;DHT22;9196;49.194;12.526;2024-01-10T02:05:35;-5.10;95.40
18141;DHT22;9196;49.194;12.526;2024-01-10T02:08:02;-5.20;95.40
18141;DHT22;9196;49.194;12.526;2024-01-10T02:10:29;-5.20;95.50
18141;DHT22;9196;49.194;12.526;2024-01-10T02:12:56;-5.20;95.60
18141;DHT22;9196;49.194;12.526;2024-01-10T02:15:23;-5.20;95.80
18141;DHT22;9196;49.194;12.526;2024-01-10T02:17:52;-5.20;95.90
18141;DHT22;9196;49.194;12.526;2024-01-10T02:20:19;-5.20;96.00
18141;DHT22;9196;49.194;12.526;2024-01-10T02:22:46;-5.30;95.50
18141;DHT22;9196;49.194;12.526;2024-01-10T02:25:17;-5.20;95.80
18141;DHT22;9196;49.194;12.526;2024-01-10T02:27:44;-5.20;96.00
18141;DHT22;9196;49.194;12.526;2024-01-10T02:30:11;-5.10;96.30
18141;DHT22;9196;49.194;12.526;2024-01-10T02:32:37;-5.00;95.80
18141;DHT22;9196;49.194;12.526;2024-01-10T02:35:04;-5.00;94.90
18141;DHT22;9196;49.194;12.526;2024-01-10T02:37:30;-5.00;95.30
18141;DHT22;9196;49.194;12.526;2024-01-10T02:39:57;-5.00;94.90
18141;DHT22;9196;49.194;12.526;2024-01-10T02:42:26;-5.00;95.10
18141;DHT22;9196;49.194;12.526;2024-01-10T02:44:53;-5.10;95.50
18141;DHT22;9196;49.194;12.526;2024-01-10T02:47:20;-5.10;95.60
18141;DHT22;9196;49.194;12.526;2024-01-10T02:49:47;-5.20;95.50
18141;DHT22;9196;49.194;12.526;2024-01-10T02:52:14;-5.20;95.60
18141;DHT22;9196;49.194;12.526;2024-01-10T02:54:41;-5.20;95.40
18141;DHT22;9196;49.194;12.526;2024-01-10T02:57:07;-5.30;95.70
18141;DHT22;9196;49.194;12.526;2024-01-10T02:59:36;-5.20;95.90
18141;DHT22;9196;49.194;12.526;2024-01-10T03:02:03;-5.20;95.90
18141;DHT22;9196;49.194;12.526;2024-01-10T03:04:29;-5.20;95.70
18141;DHT22;9196;49.194;12.526;2024-01-10T03:06:56;-5.20;95.80
18141;DHT22;9196;49.194;12.526;2024-01-10T03:09:23;-5.30;95.80
18141;DHT22;9196;49.194;12.526;2024-01-10T03:11:50;-5.30;96.10
18141;DHT22;9196;49.194;12.526;2024-01-10T03:14:17;-5.20;96.50
18141;DHT22;9196;49.194;12.526;2024-01-10T03:16:45;-5.20;96.20
18141;DHT22;9196;49.194;12.526;2024-01-10T03:19:12;-5.20;96.00
18141;DHT22;9196;49.194;12.526;2024-01-10T03:21:38;-5.20;96.20
18141;DHT22;9196;49.194;12.526;2024-01-10T03:24:06;-5.20;95.90
18141;DHT22;9196;49.194;12.526;2024-01-10T03:26:33;-5.20;96.30
18141;DHT22;9196;49.194;12.526;2024-01-10T03:28:59;-5.30;95.80
18141;DHT22;9196;49.194;12.526;2024-01-10T03:31:27;-5.30;95.50
18141;DHT22;9196;49.194;12.526;2024-01-10T03:33:57;-5.30;95.50
18141;DHT22;9196;49.194;12.526;2024-01-10T03:36:24;-5.30;95.80
18141;DHT22;9196;49.194;12.526;2024-01-10T03:38:51;-5.40;96.30
18141;DHT22;9196;49.194;12.526;2024-01-10T03:41:18;-5.40;96.40
18141;DHT22;9196;49.194;12.526;2024-01-10T03:43:46;-5.40;96.60
18141;DHT22;9196;49.194;12.526;2024-01-10T03:46:13;-5.40;96.50
18141;DHT22;9196;49.194;12.526;2024-01-10T03:48:39;-5.50;96.40
18141;DHT22;9196;49.194;12.526;2024-01-10T03:51:14;-5.50;96.60
18141;DHT22;9196;49.194;12.526;2024-01-10T03:53:41;-5.50;96.70
18141;DHT22;9196;49.194;12.526;2024-01-10T03:56:08;-5.40;96.70
18141;DHT22;9196;49.194;12.526;2024-01-10T03:58:35;-5.40;96.90
18141;DHT22;9196;49.194;12.526;2024-01-10T04:01:04;-5.50;96.80
18141;DHT22;9196;49.194;12.526;2024-01-10T04:03:31;-5.50;96.90
18141;DHT22;9196;49.194;12.526;2024-01-10T04:05:58;-5.50;97.20
18141;DHT22;9196;49.194;12.526;2024-01-10T04:08:26;-5.30;97.50
18141;DHT22;9196;49.194;12.526;2024-01-10T04:10:53;-5.30;96.50
18141;DHT22;9196;49.194;12.526;2024-01-10T04:13:20;-5.50;96.50
18141;DHT22;9196;49.194;12.526;2024-01-10T04:15:47;-5.60;96.90
18141;DHT22;9196;49.194;12.526;2024-01-10T04:18:14;-5.60;97.50
18141;DHT22;9196;49.194;12.526;2024-01-10T04:20:41;-5.50;97.30
18141;DHT22;9196;49.194;12.526;2024-01-10T04:23:09;-5.40;97.10
18141;DHT22;9196;49.194;12.526;2024-01-10T04:25:37;-5.50;97.00
18141;DHT22;9196;49.194;12.526;2024-01-10T04:28:05;-5.50;97.10
18141;DHT22;9196;49.194;12.526;2024-01-10T04:30:32;-5.50;97.30
18141;DHT22;9196;49.194;12.526;2024-01-10T04:32:58;-5.50;97.20
18141;DHT22;9196;49.194;12.526;2024-01-10T04:35:25;-5.50;97.00
18141;DHT22;9196;49.194;12.526;2024-01-10T04:37:52;-5.50;97.40
18141;DHT22;9196;49.194;12.526;2024-01-10T04:40:19;-5.40;97.10
18141;DHT22;9196;49.194;12.526;2024-01-10T04:42:47;-5.50;97.20
18141;DHT22;9196;49.194;12.526;2024-01-10T04:45:14;-5.60;97.50
18141;DHT22;9196;49.194;12.526;2024-01-10T04:47:41;-5.60;97.70
18141;DHT22;9196;49.194;12.526;2024-01-10T04:50:08;-5.60;97.90
18141;DHT22;9196;49.194;12.526;2024-01-10T04:52:35;-5.60;97.80
18141;DHT22;9196;49.194;12.526;2024-01-10T04:55:02;-5.50;98.60
18141;DHT22;9196;49.194;12.526;2024-01-10T04:57:31;-5.40;98.20
18141;DHT22;9196;49.194;12.526;2024-01-10T04:59:59;-5.40;97.70
18141;DHT22;9196;49.194;12.526;2024-01-10T05:02:26;-5.50;97.40
18141;DHT22;9196;49.194;12.526;2024-01-10T05:04:53;-5.60;97.30
18141;DHT22;9196;49.194;12.526;2024-01-10T05:07:19;-5.60;97.50
18141;DHT22;9196;49.194;12.526;2024-01-10T05:09:46;-5.80;97.50
18141;DHT22;9196;49.194;12.526;2024-01-10T05:12:13;-5.80;98.10
18141;DHT22;9196;49.194;12.526;2024-01-10T05:14:40;-5.90;98.80
18141;DHT22;9196;49.194;12.526;2024-01-10T05:17:08;-5.80;98.60
18141;DHT22;9196;49.194;12.526;2024-01-10T05:19:35;-5.80;98.30
18141;DHT22;9196;49.194;12.526;2024-01-10T05:22:02;-5.90;98.60
18141;DHT22;9196;49.194;12.526;2024-01-10T05:24:28;-5.80;98.60
18141;DHT22;9196;49.194;12.526;2024-01-10T05:26:55;-5.80;98.50
18141;DHT22;9196;49.194;12.526;2024-01-10T05:29:23;-5.80;98.60
18141;DHT22;9196;49.194;12.526;2024-01-10T05:31:50;-5.80;98.80
18141;DHT22;9196;49.194;12.526;2024-01-10T05:34:18;-5.80;99.00
18141;DHT22;9196;49.194;12.526;2024-01-10T05:36:45;-5.90;98.90
18141;DHT22;9196;49.194;12.526;2024-01-10T05:39:11;-5.90;98.90
18141;DHT22;9196;49.194;12.526;2024-01-10T05:41:41;-5.80;99.30
18141;DHT22;9196;49.194;12.526;2024-01-10T05:44:09;-5.70;99.20
18141;DHT22;9196;49.194;12.526;2024-01-10T05:46:36;-5.70;98.60
18141;DHT22;9196;49.194;12.526;2024-01-10T05:49:03;-5.70;98.70
18141;DHT22;9196;49.194;12.526;2024-01-10T05:51:32;-5.60;98.90
18141;DHT22;9196;49.194;12.526;2024-01-10T05:53:59;-5.60;98.30
18141;DHT22;9196;49.194;12.526;2024-01-10T05:56:25;-5.60;97.90
18141;DHT22;9196;49.194;12.526;2024-01-10T05:58:52;-5.80;98.00
18141;DHT22;9196;49.194;12.526;2024-01-10T06:01:19;-5.70;98.40
18141;DHT22;9196;49.194;12.526;2024-01-10T06:03:46;-5.80;98.60
18141;DHT22;9196;49.194;12.526;2024-01-10T06:06:13;-5.80;98.70
18141;DHT22;9196;49.194;12.526;2024-01-10T06:08:41;-5.80;98.80
18141;DHT22;9196;49.194;12.526;2024-01-10T06:11:08;-5.80;99.80
18141;DHT22;9196;49.194;12.526;2024-01-10T06:13:35;-5.80;99.90
18141;DHT22;9196;49.194;12.526;2024-01-10T06:16:02;-5.90;99.70
18141;DHT22;9196;49.194;12.526;2024-01-10T06:18:29;-5.90;99.90
18141;DHT22;9196;49.194;12.526;2024-01-10T06:20:55;-5.80;99.90
18141;DHT22;9196;49.194;12.526;2024-01-10T06:23:22;-5.80;99.70
18141;DHT22;9196;49.194;12.526;2024-01-10T06:25:50;-5.90;99.70
18141;DHT22;9196;49.194;12.526;2024-01-10T06:28:20;-5.90;99.90
18141;DHT22;9196;49.194;12.526;2024-01-10T06:30:46;-6.00;99.90
18141;DHT22;9196;49.194;12.526;2024-01-10T06:33:13;-6.10;99.90
18141;DHT22;9196;49.194;12.526;2024-01-10T06:35:40;-6.10;99.90
18141;DHT22;9196;49.194;12.526;2024-01-10T06:38:08;-6.00;99.90
18141;DHT22;9196;49.194;12.526;2024-01-10T06:40:35;-6.00;99.90
18141;DHT22;9196;49.194;12.526;2024-01-10T06:43:04;-6.00;99.90
18141;DHT22;9196;49.194;12.526;2024-01-10T06:45:34;-6.10;99.90
18141;DHT22;9196;49.194;12.526;2024-01-10T06:48:00;-6.20;99.90
18141;DHT22;9196;49.194;12.526;2024-01-10T06:50:27;-6.10;99.90
18141;DHT22;9196;49.194;12.526;2024-01-10T06:52:53;-6.20;99.90
18141;DHT22;9196;49.194;12.526;2024-01-10T06:55:20;-6.20;99.90
18141;DHT22;9196;49.194;12.526;2024-01-10T06:57:49;-6.10;99.90
18141;DHT22;9196;49.194;12.526;2024-01-10T07:00:20;-6.00;99.90
18141;DHT22;9196;49.194;12.526;2024-01-10T07:02:47;-5.90;99.90
18141;DHT22;9196;49.194;12.526;2024-01-10T07:05:14;-5.80;99.90
18141;DHT22;9196;49.194;12.526;2024-01-10T07:07:41;-5.80;99.90
18141;DHT22;9196;49.194;12.526;2024-01-10T07:10:09;-5.90;99.90
18141;DHT22;9196;49.194;12.526;2024-01-10T07:12:36;-5.90;99.90
18141;DHT22;9196;49.194;12.526;2024-01-10T07:15:03;-6.00;99.90
18141;DHT22;9196;49.194;12.526;2024-01-10T07:17:32;-6.10;99.90
18141;DHT22;9196;49.194;12.526;2024-01-10T07:19:58;-6.20;99.90
18141;DHT22;9196;49.194;12.526;2024-01-10T07:22:25;-6.30;99.90
18141;DHT22;9196;49.194;12.526;2024-01-10T07:24:52;-6.30;99.90
18141;DHT22;9196;49.194;12.526;2024-01-10T07:27:19;-6.30;99.90
18141;DHT22;9196;49.194;12.526;2024-01-10T07:29:45;-6.30;99.90
18141;DHT22;9196;49.194;12.526;2024-01-10T07:32:12;-6.40;99.90
18141;DHT22;9196;49.194;12.526;2024-01-10T07:34:40;-6.40;99.90
18141;DHT22;9196;49.194;12.526;2024-01-10T07:37:07;-6.40;99.90
18141;DHT22;9196;49.194;12.526;2024-01-10T07:39:36;-6.40;99.90
18141;DHT22;9196;49.194;12.526;2024-01-10T07:42:03;-6.40;99.90
18141;DHT22;9196;49.194;12.526;2024-01-10T07:44:30;-6.40;99.90
18141;DHT22;9196;49.194;12.526;2024-01-10T07:46:57;-6.40;99.90
18141;DHT22;9196;49.194;12.526;2024-01-10T07:49:24;-6.40;99.90
18141;DHT22;9196;49.194;12.526;2024-01-10T07:51:53;-6.40;99.90
18141;DHT22;9196;49.194;12.526;2024-01-10T07:54:19;-6.40;99.90
18141;DHT22;9196;49.194;12.526;2024-01-10T07:56:46;-6.30;99.90
18141;DHT22;9196;49.194;12.526;2024-01-10T07:59:13;-6.30;99.90
18141;DHT22;9196;49.194;12.526;2024-01-10T08:01:44;-6.20;99.90
18141;DHT22;9196;49.194;12.526;2024-01-10T08:04:11;-6.20;99.90
18141;DHT22;9196;49.194;12.526;2024-01-10T08:06:38;-6.20;99.90
18141;DHT22;9196;49.194;12.526;2024-01-10T08:09:06;-6.20;99.90
18141;DHT22;9196;49.194;12.526;2024-01-10T08:11:33;-6.10;99.90
18141;DHT22;9196;49.194;12.526;2024-01-10T08:14:00;-6.10;99.90
18141;DHT22;9196;49.194;12.526;2024-01-10T08:16:27;-6.10;99.90
18141;DHT22;9196;49.194;12.526;2024-01-10T08:18:53;-5.90;99.90
18141;DHT22;9196;49.194;12.526;2024-01-10T08:21:20;-5.90;99.90
18141;DHT22;9196;49.194;12.526;2024-01-10T08:23:47;-5.90;99.90
18141;DHT22;9196;49.194;12.526;2024-01-10T08:26:15;-5.80;99.90
18141;DHT22;9196;49.194;12.526;2024-01-10T08:28:42;-5.70;99.90
18141;DHT22;9196;49.194;12.526;2024-01-10T08:31:09;-5.60;99.90
18141;DHT22;9196;49.194;12.526;2024-01-10T08:33:36;-5.50;99.90
18141;DHT22;9196;49.194;12.526;2024-01-10T08:36:03;-5.40;99.90
18141;DHT22;9196;49.194;12.526;2024-01-10T08:38:30;-5.30;99.90
18141;DHT22;9196;49.194;12.526;2024-01-10T08:40:56;-5.20;99.90
18141;DHT22;9196;49.194;12.526;2024-01-10T08:43:24;-5.10;99.90
18141;DHT22;9196;49.194;12.526;2024-01-10T08:45:51;-5.00;99.90
18141;DHT22;9196;49.194;12.526;2024-01-10T08:48:18;-4.90;99.90
18141;DHT22;9196;49.194;12.526;2024-01-10T08:50:45;-4.90;99.90
18141;DHT22;9196;49.194;12.526;2024-01-10T08:53:12;-4.90;99.90
18141;DHT22;9196;49.194;12.526;2024-01-10T08:55:39;-4.90;99.70
18141;DHT22;9196;49.194;12.526;2024-01-10T08:58:05;-4.80;99.90
18141;DHT22;9196;49.194;12.526;2024-01-10T09:00:34;-4.60;99.80
18141;DHT22;9196;49.194;12.526;2024-01-10T09:03:01;-4.50;99.70
18141;DHT22;9196;49.194;12.526;2024-01-10T09:05:28;-4.50;98.90
18141;DHT22;9196;49.194;12.526;2024-01-10T09:07:55;-4.40;98.70
18141;DHT22;9196;49.194;12.526;2024-01-10T09:10:22;-4.40;98.80
18141;DHT22;9196;49.194;12.526;2024-01-10T09:12:48;-4.30;98.60
18141;DHT22;9196;49.194;12.526;2024-01-10T09:15:15;-4.30;98.10
18141;DHT22;9196;49.194;12.526;2024-01-10T09:17:44;-4.20;98.30
18141;DHT22;9196;49.194;12.526;2024-01-10T09:20:12;-4.10;98.20
18141;DHT22;9196;49.194;12.526;2024-01-10T09:22:39;-4.00;97.90
18141;DHT22;9196;49.194;12.526;2024-01-10T09:25:06;-4.00;97.30
18141;DHT22;9196;49.194;12.526;2024-01-10T09:27:34;-4.00;97.20
18141;DHT22;9196;49.194;12.526;2024-01-10T09:30:01;-3.90;97.40
18141;DHT22;9196;49.194;12.526;2024-01-10T09:32:28;-3.90;97.30
18141;DHT22;9196;49.194;12.526;2024-01-10T09:34:57;-3.80;97.30
18141;DHT22;9196;49.194;12.526;2024-01-10T09:37:23;-3.80;96.90
18141;DHT22;9196;49.194;12.526;2024-01-10T09:39:50;-3.80;97.10
18141;DHT22;9196;49.194;12.526;2024-01-10T09:42:18;-3.80;96.60
18141;DHT22;9196;49.194;12.526;2024-01-10T09:44:46;-3.70;96.90
18141;DHT22;9196;49.194;12.526;2024-01-10T09:47:15;-3.50;96.90
18141;DHT22;9196;49.194;12.526;2024-01-10T09:49:42;-3.50;96.40
18141;DHT22;9196;49.194;12.526;2024-01-10T09:52:21;-3.40;96.30
18141;DHT22;9196;49.194;12.526;2024-01-10T09:54:51;-3.50;96.10
18141;DHT22;9196;49.194;12.526;2024-01-10T09:57:20;-3.50;96.30
18141;DHT22;9196;49.194;12.526;2024-01-10T09:59:49;-3.40;96.40
18141;DHT22;9196;49.194;12.526;2024-01-10T10:02:18;-3.40;96.40
18141;DHT22;9196;49.194;12.526;2024-01-10T10:04:51;-3.30;96.30
18141;DHT22;9196;49.194;12.526;2024-01-10T10:07:21;-3.20;96.50
18141;DHT22;9196;49.194;12.526;2024-01-10T10:09:48;-3.10;96.20
18141;DHT22;9196;49.194;12.526;2024-01-10T10:12:15;-3.10;96.30
18141;DHT22;9196;49.194;12.526;2024-01-10T10:14:42;-3.00;95.90
18141;DHT22;9196;49.194;12.526;2024-01-10T10:17:18;-2.80;95.60
18141;DHT22;9196;49.194;12.526;2024-01-10T10:19:44;-2.80;95.30
18141;DHT22;9196;49.194;12.526;2024-01-10T10:22:11;-2.70;95.40
18141;DHT22;9196;49.194;12.526;2024-01-10T10:24:40;-2.60;95.20
18141;DHT22;9196;49.194;12.526;2024-01-10T10:27:11;-2.60;94.90
18141;DHT22;9196;49.194;12.526;2024-01-10T10:29:38;-2.60;95.10
18141;DHT22;9196;49.194;12.526;2024-01-10T10:32:06;-2.50;94.70
18141;DHT22;9196;49.194;12.526;2024-01-10T10:34:34;-2.40;94.60
18141;DHT22;9196;49.194;12.526;2024-01-10T10:37:00;-2.30;94.60
18141;DHT22;9196;49.194;12.526;2024-01-10T10:39:27;-2.20;94.70
18141;DHT22;9196;49.194;12.526;2024-01-10T10:41:56;-2.20;94.10
18141;DHT22;9196;49.194;12.526;2024-01-10T10:44:24;-2.00;95.00
18141;DHT22;9196;49.194;12.526;2024-01-10T10:46:53;-1.80;94.00
18141;DHT22;9196;49.194;12.526;2024-01-10T10:49:27;-1.70;93.70
18141;DHT22;9196;49.194;12.526;2024-01-10T10:51:58;-1.70;93.50
18141;DHT22;9196;49.194;12.526;2024-01-10T10:54:28;-1.60;93.30
18141;DHT22;9196;49.194;12.526;2024-01-10T10:57:01;-1.50;93.00
18141;DHT22;9196;49.194;12.526;2024-01-10T10:59:29;-1.40;93.20
18141;DHT22;9196;49.194;12.526;2024-01-10T11:01:59;-1.30;93.00
18141;DHT22;9196;49.194;12.526;2024-01-10T11:04:26;-1.10;93.20
18141;DHT22;9196;49.194;12.526;2024-01-10T11:06:53;-1.00;92.60
18141;DHT22;9196;49.194;12.526;2024-01-10T11:09:20;-1.00;92.30
18141;DHT22;9196;49.194;12.526;2024-01-10T11:12:07;-1.00;92.30
18141;DHT22;9196;49.194;12.526;2024-01-10T11:14:50;-0.90;92.10
18141;DHT22;9196;49.194;12.526;2024-01-10T11:17:44;-0.90;92.20
18141;DHT22;9196;49.194;12.526;2024-01-10T11:20:33;-0.70;92.40
18141;DHT22;9196;49.194;12.526;2024-01-10T11:23:16;-0.50;91.80
18141;DHT22;9196;49.194;12.526;2024-01-10T11:25:48;-0.40;91.80
18141;DHT22;9196;49.194;12.526;2024-01-10T11:28:17;-0.40;91.70
18141;DHT22;9196;49.194;12.526;2024-01-10T11:30:51;-0.30;91.30
18141;DHT22;9196;49.194;12.526;2024-01-10T11:33:22;-0.20;91.20
18141;DHT22;9196;49.194;12.526;2024-01-10T11:36:09;-0.10;91.30
18141;DHT22;9196;49.194;12.526;2024-01-10T11:38:49;0.00;91.10
18141;DHT22;9196;49.194;12.526;2024-01-10T11:41:21;0.20;90.90
18141;DHT22;9196;49.194;12.526;2024-01-10T11:46:53;0.20;90.10
18141;DHT22;9196;49.194;12.526;2024-01-10T11:49:21;0.30;89.90
18141;DHT22;9196;49.194;12.526;2024-01-10T11:51:49;0.30;90.00
18141;DHT22;9196;49.194;12.526;2024-01-10T11:54:43;0.50;90.20
18141;DHT22;9196;49.194;12.526;2024-01-10T11:57:11;0.60;90.30
18141;DHT22;9196;49.194;12.526;2024-01-10T11:59:38;0.90;90.80
18141;DHT22;9196;49.194;12.526;2024-01-10T12:02:08;1.20;90.20
18141;DHT22;9196;49.194;12.526;2024-01-10T12:04:35;1.50;90.20
18141;DHT22;9196;49.194;12.526;2024-01-10T12:07:03;1.80;90.00
18141;DHT22;9196;49.194;12.526;2024-01-10T12:09:30;1.80;86.90
18141;DHT22;9196;49.194;12.526;2024-01-10T12:11:58;2.10;87.00
18141;DHT22;9196;49.194;12.526;2024-01-10T12:14:24;2.30;85.10
18141;DHT22;9196;49.194;12.526;2024-01-10T12:16:52;2.40;84.20
18141;DHT22;9196;49.194;12.526;2024-01-10T12:19:20;2.30;83.10
18141;DHT22;9196;49.194;12.526;2024-01-10T12:21:48;2.50;84.30
18141;DHT22;9196;49.194;12.526;2024-01-10T12:24:15;2.70;83.30
18141;DHT22;9196;49.194;12.526;2024-01-10T12:26:45;2.80;81.70
18141;DHT22;9196;49.194;12.526;2024-01-10T12:29:12;2.60;81.20
18141;DHT22;9196;49.194;12.526;2024-01-10T12:31:39;2.50;84.60
18141;DHT22;9196;49.194;12.526;2024-01-10T12:34:07;2.80;83.80
18141;DHT22;9196;49.194;12.526;2024-01-10T12:36:37;3.00;83.80
18141;DHT22;9196;49.194;12.526;2024-01-10T12:39:04;3.00;80.90
18141;DHT22;9196;49.194;12.526;2024-01-10T12:41:33;3.20;80.00
18141;DHT22;9196;49.194;12.526;2024-01-10T12:44:00;3.20;80.70
18141;DHT22;9196;49.194;12.526;2024-01-10T12:46:29;3.40;79.90
18141;DHT22;9196;49.194;12.526;2024-01-10T12:49:00;3.20;78.40
18141;DHT22;9196;49.194;12.526;2024-01-10T12:51:28;3.20;78.50
18141;DHT22;9196;49.194;12.526;2024-01-10T12:53:57;3.30;79.60
18141;DHT22;9196;49.194;12.526;2024-01-10T12:56:25;3.50;79.60
18141;DHT22;9196;49.194;12.526;2024-01-10T12:58:52;3.60;78.10
18141;DHT22;9196;49.194;12.526;2024-01-10T13:01:20;3.60;77.20
18141;DHT22;9196;49.194;12.526;2024-01-10T13:03:47;3.60;77.50
18141;DHT22;9196;49.194;12.526;2024-01-10T13:06:15;3.70;77.00
18141;DHT22;9196;49.194;12.526;2024-01-10T13:08:42;3.60;75.90
18141;DHT22;9196;49.194;12.526;2024-01-10T13:11:11;3.60;76.40
18141;DHT22;9196;49.194;12.526;2024-01-10T13:13:40;3.70;76.10
18141;DHT22;9196;49.194;12.526;2024-01-10T13:16:06;3.80;75.90
18141;DHT22;9196;49.194;12.526;2024-01-10T13:18:36;3.80;75.90
18141;DHT22;9196;49.194;12.526;2024-01-10T13:21:03;4.00;76.20
18141;DHT22;9196;49.194;12.526;2024-01-10T13:23:30;4.10;75.10
18141;DHT22;9196;49.194;12.526;2024-01-10T13:25:57;4.00;75.00
18141;DHT22;9196;49.194;12.526;2024-01-10T13:28:26;3.90;74.70
18141;DHT22;9196;49.194;12.526;2024-01-10T13:30:53;3.90;74.80
18141;DHT22;9196;49.194;12.526;2024-01-10T13:33:21;4.00;74.50
18141;DHT22;9196;49.194;12.526;2024-01-10T13:35:48;4.00;73.90
18141;DHT22;9196;49.194;12.526;2024-01-10T13:38:16;4.00;73.90
18141;DHT22;9196;49.194;12.526;2024-01-10T13:40:43;3.80;73.90
18141;DHT22;9196;49.194;12.526;2024-01-10T13:43:10;3.80;74.20
18141;DHT22;9196;49.194;12.526;2024-01-10T13:45:38;3.80;74.20
18141;DHT22;9196;49.194;12.526;2024-01-10T13:48:06;3.70;74.00
18141;DHT22;9196;49.194;12.526;2024-01-10T13:50:33;3.70;74.20
18141;DHT22;9196;49.194;12.526;2024-01-10T13:53:00;4.00;76.60
18141;DHT22;9196;49.194;12.526;2024-01-10T13:55:28;4.10;74.50
18141;DHT22;9196;49.194;12.526;2024-01-10T13:57:55;4.10;74.20
18141;DHT22;9196;49.194;12.526;2024-01-10T14:00:22;4.10;74.80
18141;DHT22;9196;49.194;12.526;2024-01-10T14:02:50;4.30;75.70
18141;DHT22;9196;49.194;12.526;2024-01-10T14:05:20;4.50;73.10
18141;DHT22;9196;49.194;12.526;2024-01-10T14:07:47;4.60;73.00
18141;DHT22;9196;49.194;12.526;2024-01-10T14:10:14;4.60;72.10
18141;DHT22;9196;49.194;12.526;2024-01-10T14:12:40;4.40;72.10
18141;DHT22;9196;49.194;12.526;2024-01-10T14:15:08;4.50;72.10
18141;DHT22;9196;49.194;12.526;2024-01-10T14:17:35;4.40;70.90
18141;DHT22;9196;49.194;12.526;2024-01-10T14:20:05;4.20;71.20
18141;DHT22;9196;49.194;12.526;2024-01-10T14:22:34;4.10;71.80
18141;DHT22;9196;49.194;12.526;2024-01-10T14:25:01;4.00;72.10
18141;DHT22;9196;49.194;12.526;2024-01-10T14:27:28;4.00;72.30
18141;DHT22;9196;49.194;12.526;2024-01-10T14:29:55;4.30;71.60
18141;DHT22;9196;49.194;12.526;2024-01-10T14:32:22;3.90;72.00
18141;DHT22;9196;49.194;12.526;2024-01-10T14:34:49;3.90;71.70
18141;DHT22;9196;49.194;12.526;2024-01-10T14:37:17;3.60;71.80
18141;DHT22;9196;49.194;12.526;2024-01-10T14:39:53;3.70;72.90
18141;DHT22;9196;49.194;12.526;2024-01-10T14:42:20;3.60;72.30
18141;DHT22;9196;49.194;12.526;2024-01-10T14:44:47;3.40;72.30
18141;DHT22;9196;49.194;12.526;2024-01-10T14:47:14;2.90;73.00
18141;DHT22;9196;49.194;12.526;2024-01-10T14:49:40;2.30;74.40
18141;DHT22;9196;49.194;12.526;2024-01-10T14:52:07;2.00;75.90
18141;DHT22;9196;49.194;12.526;2024-01-10T14:54:36;1.60;77.30
18141;DHT22;9196;49.194;12.526;2024-01-10T14:57:03;1.20;78.40
18141;DHT22;9196;49.194;12.526;2024-01-10T14:59:30;0.80;79.90
18141;DHT22;9196;49.194;12.526;2024-01-10T15:01:56;0.60;81.80
18141;DHT22;9196;49.194;12.526;2024-01-10T15:04:23;0.30;83.00
18141;DHT22;9196;49.194;12.526;2024-01-10T15:06:50;0.10;84.40
18141;DHT22;9196;49.194;12.526;2024-01-10T15:09:17;-0.10;85.90
18141;DHT22;9196;49.194;12.526;2024-01-10T15:11:46;-0.30;86.60
18141;DHT22;9196;49.194;12.526;2024-01-10T15:14:12;-0.40;87.90
18141;DHT22;9196;49.194;12.526;2024-01-10T15:16:39;-0.40;88.60
18141;DHT22;9196;49.194;12.526;2024-01-10T15:19:06;-0.50;89.40
18141;DHT22;9196;49.194;12.526;2024-01-10T15:21:33;-0.70;90.00
18141;DHT22;9196;49.194;12.526;2024-01-10T15:23:59;-0.80;90.40
18141;DHT22;9196;49.194;12.526;2024-01-10T15:26:26;-0.80;90.80
18141;DHT22;9196;49.194;12.526;2024-01-10T15:28:54;-1.00;91.10
18141;DHT22;9196;49.194;12.526;2024-01-10T15:31:21;-1.10;91.60
18141;DHT22;9196;49.194;12.526;2024-01-10T15:33:49;-1.20;91.80
18141;DHT22;9196;49.194;12.526;2024-01-10T15:36:15;-1.20;92.20
18141;DHT22;9196;49.194;12.526;2024-01-10T15:38:42;-1.40;92.50
18141;DHT22;9196;49.194;12.526;2024-01-10T15:41:09;-1.50;93.00